createdAt,value
2022-10-05T00:01:02.275Z,10.50
2022-10-05T00:03:49.485Z,10.50
2022-10-05T00:06:36.528Z,10.70
2022-10-05T00:09:24.396Z,10.60
2022-10-05T00:12:15.450Z,10.70
2022-10-05T00:15:02.820Z,10.80
2022-10-05T00:17:49.816Z,10.80
2022-10-05T00:20:36.561Z,10.70
2022-10-05T00:23:25.822Z,10.80
2022-10-05T00:26:18.447Z,10.70
2022-10-05T00:29:17.188Z,10.70
2022-10-05T00:32:03.678Z,10.70
2022-10-05T00:34:50.820Z,10.80
2022-10-05T00:37:37.229Z,10.90
2022-10-05T00:40:40.731Z,10.90
2022-10-05T00:43:57.764Z,10.90
2022-10-05T00:46:54.775Z,10.90
2022-10-05T00:49:55.756Z,10.90
2022-10-05T00:52:52.562Z,10.80
2022-10-05T00:55:54.482Z,10.80
2022-10-05T00:58:56.623Z,10.60
2022-10-05T01:01:51.893Z,10.70
2022-10-05T01:04:46.175Z,10.60
2022-10-05T01:07:39.748Z,10.60
2022-10-05T01:10:35.066Z,10.70
2022-10-05T01:13:32.983Z,10.50
2022-10-05T01:16:27.930Z,10.50
2022-10-05T01:19:35.397Z,10.50
2022-10-05T01:22:39.664Z,10.40
2022-10-05T01:25:31.851Z,10.40
2022-10-05T01:28:25.012Z,10.40
2022-10-05T01:31:22.588Z,10.40
2022-10-05T01:34:14.082Z,10.30
2022-10-05T01:37:08.347Z,10.30
2022-10-05T01:40:02.405Z,10.20
2022-10-05T01:42:55.078Z,10.30
2022-10-05T01:45:55.186Z,10.10
2022-10-05T01:48:54.369Z,10.10
2022-10-05T01:51:52.752Z,10.00
2022-10-05T01:54:56.685Z,10.00
2022-10-05T01:57:59.995Z,10.00
2022-10-05T02:00:55.119Z,10.00
2022-10-05T02:03:47.302Z,9.80
2022-10-05T02:06:38.534Z,9.80
2022-10-05T02:09:29.233Z,9.60
2022-10-05T02:12:19.671Z,9.50
2022-10-05T02:15:14.637Z,9.60
2022-10-05T02:18:09.800Z,9.60
2022-10-05T02:20:57.692Z,9.80
2022-10-05T02:23:48.128Z,9.90
2022-10-05T02:26:37.206Z,9.90
2022-10-05T02:29:28.629Z,10.00
2022-10-05T02:32:20.970Z,10.00
2022-10-05T02:35:20.837Z,10.00
2022-10-05T02:38:15.367Z,9.90
2022-10-05T02:41:07.753Z,9.70
2022-10-05T02:44:03.968Z,9.80
2022-10-05T02:47:00.523Z,9.80
2022-10-05T02:49:55.960Z,9.80
2022-10-05T02:52:53.853Z,9.80
2022-10-05T02:55:48.383Z,9.90
2022-10-05T02:58:43.832Z,9.60
2022-10-05T03:01:36.752Z,9.40
2022-10-05T03:04:34.163Z,9.20
2022-10-05T03:07:28.191Z,9.10
2022-10-05T03:10:26.418Z,9.10
2022-10-05T03:13:21.961Z,9.10
2022-10-05T03:16:23.307Z,9.10
2022-10-05T03:19:22.859Z,9.20
2022-10-05T03:22:18.581Z,9.30
2022-10-05T03:25:28.754Z,9.30
2022-10-05T03:28:23.671Z,9.30
2022-10-05T03:31:15.801Z,9.40
2022-10-05T03:34:11.405Z,9.40
2022-10-05T03:37:05.269Z,9.50
2022-10-05T03:39:56.289Z,9.50
2022-10-05T03:42:58.759Z,9.50
2022-10-05T03:45:53.726Z,9.40
2022-10-05T03:48:48.047Z,9.30
2022-10-05T03:51:39.147Z,9.50
2022-10-05T03:54:30.859Z,9.40
2022-10-05T03:57:21.510Z,9.40
2022-10-05T04:00:16.841Z,9.20
2022-10-05T04:03:13.309Z,9.20
2022-10-05T04:06:08.167Z,9.10
2022-10-05T04:09:00.144Z,8.90
2022-10-05T04:11:52.055Z,8.80
2022-10-05T04:14:42.398Z,8.80
2022-10-05T04:17:36.214Z,8.70
2022-10-05T04:20:27.661Z,8.40
2022-10-05T04:23:20.351Z,8.50
2022-10-05T04:26:12.747Z,8.70
2022-10-05T04:29:07.329Z,8.70
2022-10-05T04:32:06.715Z,8.70
2022-10-05T04:35:17.308Z,8.60
2022-10-05T04:38:16.376Z,8.40
2022-10-05T04:41:26.682Z,8.40
2022-10-05T04:44:26.241Z,8.60
2022-10-05T04:47:35.276Z,8.60
2022-10-05T04:50:39.842Z,8.70
2022-10-05T04:53:34.609Z,8.80
2022-10-05T04:56:35.069Z,8.80
2022-10-05T04:59:55.613Z,8.80
2022-10-05T05:03:02.204Z,8.60
2022-10-05T05:06:16.488Z,8.60
2022-10-05T05:09:20.943Z,8.50
2022-10-05T05:12:21.708Z,8.80
2022-10-05T05:15:25.948Z,8.70
2022-10-05T05:18:46.865Z,8.60
2022-10-05T05:21:43.508Z,8.60
2022-10-05T05:24:41.837Z,8.70
2022-10-05T05:27:40.329Z,8.80
2022-10-05T05:30:35.273Z,8.90
2022-10-05T05:33:24.060Z,8.80
2022-10-05T05:36:25.394Z,8.60
2022-10-05T05:39:28.748Z,8.70
2022-10-05T05:42:32.447Z,8.50
2022-10-05T05:45:27.122Z,8.50
2022-10-05T05:48:19.319Z,8.60
2022-10-05T05:51:11.616Z,8.50
2022-10-05T05:54:05.268Z,8.50
2022-10-05T05:56:59.943Z,8.60
2022-10-05T05:59:59.080Z,8.80
2022-10-05T06:02:52.056Z,8.90
2022-10-05T06:05:43.011Z,8.90
2022-10-05T06:08:37.690Z,9.00
2022-10-05T06:11:39.701Z,9.20
2022-10-05T06:14:32.973Z,9.40
2022-10-05T06:17:23.720Z,9.50
2022-10-05T06:20:16.731Z,9.60
2022-10-05T06:23:11.308Z,9.80
2022-10-05T06:26:28.514Z,10.00
2022-10-05T06:29:21.747Z,10.10
2022-10-05T06:32:21.825Z,10.20
2022-10-05T06:35:18.517Z,10.20
2022-10-05T06:38:18.263Z,10.10
2022-10-05T06:41:15.802Z,10.20
2022-10-05T06:44:10.614Z,10.30
2022-10-05T06:47:08.751Z,10.20
2022-10-05T06:50:33.699Z,10.30
2022-10-05T06:53:45.672Z,10.70
2022-10-05T06:56:37.137Z,11.30
2022-10-05T06:59:30.491Z,12.00
2022-10-05T07:02:25.323Z,12.30
2022-10-05T07:05:48.585Z,13.10
2022-10-05T07:08:49.785Z,13.40
2022-10-05T07:11:58.398Z,14.20
2022-10-05T07:15:06.679Z,14.90
2022-10-05T07:18:05.700Z,15.50
2022-10-05T07:21:00.209Z,15.60
2022-10-05T07:23:58.402Z,15.50
2022-10-05T07:26:51.510Z,15.60
2022-10-05T07:29:46.625Z,15.70
2022-10-05T07:32:37.471Z,15.90
2022-10-05T07:35:52.536Z,16.20
2022-10-05T07:38:43.993Z,16.50
2022-10-05T07:41:38.201Z,16.80
2022-10-05T07:44:27.856Z,17.00
2022-10-05T07:47:24.535Z,17.50
2022-10-05T07:50:20.275Z,18.00
2022-10-05T07:53:14.858Z,18.50
2022-10-05T07:56:04.569Z,18.80
2022-10-05T07:59:00.550Z,18.90
2022-10-05T08:01:52.350Z,19.30
2022-10-05T08:04:48.149Z,19.70
2022-10-05T08:07:36.879Z,20.40
2022-10-05T08:10:32.268Z,20.50
2022-10-05T08:13:24.582Z,20.70
2022-10-05T08:16:14.487Z,20.20
2022-10-05T08:19:11.356Z,20.00
2022-10-05T08:22:02.683Z,20.40
2022-10-05T08:25:02.650Z,21.00
2022-10-05T08:27:53.156Z,21.50
2022-10-05T08:30:53.084Z,21.40
2022-10-05T08:33:53.558Z,21.70
2022-10-05T08:36:55.656Z,21.90
2022-10-05T08:39:49.086Z,21.80
2022-10-05T08:42:52.287Z,22.30
2022-10-05T08:46:14.918Z,22.00
2022-10-05T08:49:36.098Z,22.50
2022-10-05T08:52:28.860Z,22.50
2022-10-05T08:55:36.935Z,22.90
2022-10-05T08:58:54.633Z,23.10
2022-10-05T09:02:06.651Z,23.00
2022-10-05T09:05:15.411Z,23.00
2022-10-05T09:08:39.595Z,23.20
2022-10-05T09:11:33.937Z,23.10
2022-10-05T09:14:34.483Z,23.10
2022-10-05T09:18:03.336Z,22.90
2022-10-05T09:20:54.138Z,23.30
2022-10-05T09:23:43.002Z,23.20
2022-10-05T09:26:52.336Z,23.40
2022-10-05T09:30:14.925Z,22.90
2022-10-05T09:33:40.867Z,23.00
2022-10-05T09:36:59.318Z,22.70
2022-10-05T09:40:27.976Z,22.80
2022-10-05T09:44:00.544Z,23.20
2022-10-05T09:47:02.276Z,23.80
2022-10-05T09:50:10.038Z,23.50
2022-10-05T09:53:27.176Z,23.20
2022-10-05T09:56:30.006Z,23.50
2022-10-05T09:59:37.061Z,23.80
2022-10-05T10:02:59.422Z,24.10
2022-10-05T10:06:27.622Z,24.60
2022-10-05T10:09:29.611Z,25.00
2022-10-05T10:12:44.243Z,25.30
2022-10-05T10:16:04.569Z,25.40
2022-10-05T10:19:18.087Z,25.60
2022-10-05T10:22:48.862Z,25.50
2022-10-05T10:25:53.919Z,25.20
2022-10-05T10:29:01.849Z,24.70
2022-10-05T10:32:20.269Z,24.50
2022-10-05T10:35:23.109Z,24.70
2022-10-05T10:38:28.613Z,25.10
2022-10-05T10:41:48.763Z,25.30
2022-10-05T10:45:00.757Z,25.40
2022-10-05T10:48:00.373Z,25.10
2022-10-05T10:51:14.498Z,24.80
2022-10-05T10:54:28.756Z,24.80
2022-10-05T10:57:18.770Z,24.90
2022-10-05T11:00:40.055Z,25.10
2022-10-05T11:04:00.794Z,25.50
2022-10-05T11:07:19.412Z,25.40
2022-10-05T11:10:33.532Z,25.50
2022-10-05T11:13:33.691Z,25.40
2022-10-05T11:16:55.094Z,25.50
2022-10-05T11:20:05.054Z,25.60
2022-10-05T11:22:58.689Z,25.90
2022-10-05T11:26:14.409Z,25.80
2022-10-05T11:29:38.262Z,25.70
2022-10-05T11:33:11.841Z,25.50
2022-10-05T11:36:21.302Z,25.50
2022-10-05T11:39:42.103Z,25.40
2022-10-05T11:42:55.846Z,25.50
2022-10-05T11:46:01.605Z,25.70
2022-10-05T11:49:04.561Z,25.30
2022-10-05T11:52:02.947Z,25.00
2022-10-05T11:55:11.695Z,24.80
2022-10-05T11:58:02.338Z,24.90
2022-10-05T12:00:55.497Z,25.00
2022-10-05T12:03:51.232Z,25.00
2022-10-05T12:07:02.792Z,24.80
2022-10-05T12:10:17.326Z,24.80
2022-10-05T12:13:14.785Z,24.70
2022-10-05T12:16:07.111Z,24.70
2022-10-05T12:18:59.912Z,24.60
2022-10-05T12:21:51.492Z,24.70
2022-10-05T12:25:01.599Z,24.70
2022-10-05T12:27:53.236Z,24.70
2022-10-05T12:31:02.606Z,24.60
2022-10-05T12:33:57.050Z,24.60
2022-10-05T12:37:05.224Z,24.50
2022-10-05T12:39:59.143Z,24.40
2022-10-05T12:42:52.831Z,24.00
2022-10-05T12:45:54.959Z,24.00
2022-10-05T12:48:58.131Z,24.10
2022-10-05T12:51:51.744Z,24.00
2022-10-05T12:54:43.277Z,24.10
2022-10-05T12:57:41.840Z,24.20
2022-10-05T13:00:31.434Z,24.40
2022-10-05T13:03:25.469Z,24.40
2022-10-05T13:06:24.054Z,24.30
2022-10-05T13:09:18.677Z,24.10
2022-10-05T13:12:13.125Z,24.00
2022-10-05T13:15:08.147Z,24.10
2022-10-05T13:18:10.216Z,24.10
2022-10-05T13:21:05.022Z,24.10
2022-10-05T13:23:59.470Z,24.20
2022-10-05T13:26:50.437Z,24.10
2022-10-05T13:29:43.141Z,24.00
2022-10-05T13:32:36.698Z,24.10
2022-10-05T13:35:36.002Z,24.10
2022-10-05T13:38:34.117Z,24.00
2022-10-05T13:41:30.731Z,24.00
2022-10-05T13:44:26.282Z,23.80
2022-10-05T13:47:19.195Z,23.70
2022-10-05T13:50:18.002Z,23.60
2022-10-05T13:53:16.424Z,23.60
2022-10-05T13:56:17.669Z,23.60
2022-10-05T13:59:14.683Z,23.40
2022-10-05T14:02:05.904Z,23.40
2022-10-05T14:04:59.244Z,23.30
2022-10-05T14:07:56.551Z,23.20
2022-10-05T14:10:45.134Z,23.00
2022-10-05T14:13:45.202Z,23.00
2022-10-05T14:16:35.382Z,22.90
2022-10-05T14:19:27.937Z,22.90
2022-10-05T14:22:22.281Z,22.80
2022-10-05T14:25:19.672Z,22.80
2022-10-05T14:28:25.036Z,22.80
2022-10-05T14:31:16.071Z,22.70
2022-10-05T14:34:32.853Z,22.70
2022-10-05T14:37:21.267Z,22.70
2022-10-05T14:43:17.203Z,22.60
2022-10-05T14:46:24.975Z,22.70
2022-10-05T14:49:24.091Z,22.70
2022-10-05T14:52:31.617Z,22.60
2022-10-05T14:55:39.386Z,22.70
2022-10-05T14:58:42.848Z,22.60
2022-10-05T15:01:31.506Z,22.60
2022-10-05T15:04:30.659Z,22.60
2022-10-05T15:07:23.955Z,22.70
2022-10-05T15:10:30.197Z,22.80
2022-10-05T15:13:19.388Z,22.90
2022-10-05T15:16:18.293Z,22.90
2022-10-05T15:19:16.643Z,22.90
2022-10-05T15:22:19.709Z,22.70
2022-10-05T15:25:14.765Z,22.60
2022-10-05T15:28:12.784Z,22.50
2022-10-05T15:31:03.977Z,22.40
2022-10-05T15:34:01.481Z,22.30
2022-10-05T15:36:53.749Z,22.20
2022-10-05T15:39:49.877Z,22.20
2022-10-05T15:42:38.603Z,22.10
2022-10-05T15:45:32.269Z,22.00
2022-10-05T15:48:22.599Z,21.90
2022-10-05T15:51:20.032Z,21.90
2022-10-05T15:54:30.949Z,21.90
2022-10-05T15:57:25.547Z,21.80
2022-10-05T16:00:13.973Z,21.90
2022-10-05T16:03:12.416Z,21.80
2022-10-05T16:06:21.962Z,21.80
2022-10-05T16:09:21.621Z,21.70
2022-10-05T16:12:19.061Z,21.70
2022-10-05T16:15:18.703Z,21.60
2022-10-05T16:18:31.211Z,21.60
2022-10-05T16:21:30.299Z,21.50
2022-10-05T16:24:25.465Z,21.50
2022-10-05T16:27:20.560Z,21.40
2022-10-05T16:30:10.666Z,21.30
2022-10-05T16:33:04.149Z,21.20
2022-10-05T16:35:57.459Z,21.20
2022-10-05T16:38:54.901Z,21.20
2022-10-05T16:41:51.436Z,21.10
2022-10-05T16:44:45.244Z,21.00
2022-10-05T16:47:44.119Z,20.90
2022-10-05T16:50:37.731Z,20.90
2022-10-05T16:53:28.265Z,20.70
2022-10-05T16:56:18.307Z,20.60
2022-10-05T16:59:26.826Z,20.50
2022-10-05T17:02:23.091Z,20.40
2022-10-05T17:05:27.608Z,20.30
2022-10-05T17:08:40.999Z,20.20
2022-10-05T17:11:43.469Z,20.10
2022-10-05T17:14:42.788Z,20.00
2022-10-05T17:17:39.324Z,19.90
2022-10-05T17:20:45.402Z,19.80
2022-10-05T17:23:54.706Z,19.70
2022-10-05T17:26:57.118Z,19.60
2022-10-05T17:29:51.281Z,19.40
2022-10-05T17:32:55.893Z,19.30
2022-10-05T17:35:43.817Z,19.10
2022-10-05T17:38:50.068Z,18.90
2022-10-05T17:41:38.662Z,18.70
2022-10-05T17:44:26.421Z,18.60
2022-10-05T17:47:16.065Z,18.50
2022-10-05T17:50:20.129Z,18.40
2022-10-05T17:53:38.587Z,18.30
2022-10-05T17:56:25.338Z,18.20
2022-10-05T17:59:12.197Z,17.90
2022-10-05T18:02:21.124Z,17.70
2022-10-05T18:05:25.626Z,17.70
2022-10-05T18:08:31.772Z,17.70
2022-10-05T18:11:39.037Z,17.80
2022-10-05T18:14:26.493Z,17.70
2022-10-05T18:17:14.116Z,17.70
2022-10-05T18:20:28.446Z,17.70
2022-10-05T18:23:34.481Z,17.60
2022-10-05T18:26:33.314Z,17.70
2022-10-05T18:29:49.717Z,17.60
2022-10-05T18:33:04.868Z,17.40
2022-10-05T18:36:01.462Z,17.00
2022-10-05T18:38:55.639Z,16.90
2022-10-05T18:41:54.649Z,16.70
2022-10-05T18:44:46.188Z,16.50
2022-10-05T18:47:41.166Z,16.40
2022-10-05T18:50:33.032Z,16.10
2022-10-05T18:53:30.341Z,16.10
2022-10-05T18:56:26.487Z,15.90
2022-10-05T18:59:26.885Z,15.70
2022-10-05T19:02:20.398Z,15.50
2022-10-05T19:05:42.513Z,15.30
2022-10-05T19:08:30.669Z,15.20
2022-10-05T19:11:24.359Z,15.00
2022-10-05T19:14:19.892Z,15.00
2022-10-05T19:17:21.363Z,15.10
2022-10-05T19:20:19.336Z,15.20
2022-10-05T19:23:31.563Z,15.30
2022-10-05T19:26:31.367Z,15.30
2022-10-05T19:29:33.396Z,15.20
2022-10-05T19:32:28.877Z,15.10
2022-10-05T19:35:25.058Z,14.80
2022-10-05T19:38:22.462Z,14.60
2022-10-05T19:41:16.329Z,14.50
2022-10-05T19:44:15.977Z,14.50
2022-10-05T19:47:06.628Z,14.50
2022-10-05T19:49:59.447Z,14.50
2022-10-05T19:52:49.814Z,14.60
2022-10-05T19:55:39.583Z,14.70
2022-10-05T19:58:29.514Z,14.80
2022-10-05T20:01:25.055Z,14.80
2022-10-05T20:04:12.072Z,14.70
2022-10-05T20:06:59.589Z,14.50
2022-10-05T20:09:56.674Z,14.30
2022-10-05T20:12:50.692Z,14.10
2022-10-05T20:15:55.704Z,14.10
2022-10-05T20:19:07.121Z,14.00
2022-10-05T20:21:56.626Z,14.00
2022-10-05T20:24:51.632Z,14.10
2022-10-05T20:27:46.404Z,14.20
2022-10-05T20:30:33.752Z,14.20
2022-10-05T20:33:21.917Z,14.30
2022-10-05T20:36:08.634Z,14.40
2022-10-05T20:38:55.256Z,14.40
2022-10-05T20:41:42.448Z,14.40
2022-10-05T20:44:28.958Z,14.30
2022-10-05T20:47:15.322Z,14.00
2022-10-05T20:50:05.394Z,14.00
2022-10-05T20:52:52.810Z,14.00
2022-10-05T20:55:39.101Z,14.10
2022-10-05T20:58:26.008Z,14.00
2022-10-05T21:01:19.994Z,13.90
2022-10-05T21:04:08.479Z,13.70
2022-10-05T21:06:56.218Z,13.70
2022-10-05T21:09:43.696Z,13.50
2022-10-05T21:12:30.135Z,13.30
2022-10-05T21:15:16.856Z,13.30
2022-10-05T21:18:03.538Z,13.30
2022-10-05T21:20:50.553Z,13.30
2022-10-05T21:23:38.437Z,13.30
2022-10-05T21:26:25.053Z,13.30
2022-10-05T21:29:13.059Z,13.30
2022-10-05T21:31:59.696Z,13.20
2022-10-05T21:34:46.460Z,13.10
2022-10-05T21:37:32.812Z,13.20
2022-10-05T21:40:20.629Z,13.10
2022-10-05T21:43:07.061Z,13.10
2022-10-05T21:45:55.105Z,13.20
2022-10-05T21:48:42.609Z,13.20
2022-10-05T21:51:29.448Z,13.40
2022-10-05T21:54:20.051Z,13.50
2022-10-05T21:57:07.800Z,13.60
2022-10-05T21:59:54.944Z,13.60
2022-10-05T22:02:41.672Z,13.60
2022-10-05T22:05:28.008Z,13.70
2022-10-05T22:08:22.200Z,13.70
2022-10-05T22:11:13.065Z,13.70
2022-10-05T22:14:02.697Z,13.70
2022-10-05T22:16:49.456Z,13.80
2022-10-05T22:19:36.257Z,13.90
2022-10-05T22:22:22.657Z,14.00
2022-10-05T22:25:09.592Z,14.00
2022-10-05T22:27:56.582Z,14.10
2022-10-05T22:30:46.493Z,14.10
2022-10-05T22:33:33.405Z,14.10
2022-10-05T22:36:20.697Z,14.10
2022-10-05T22:39:07.393Z,14.10
2022-10-05T22:41:53.692Z,14.20
2022-10-05T22:44:40.267Z,14.20
2022-10-05T22:47:28.101Z,14.10
2022-10-05T22:50:15.034Z,14.20
2022-10-05T22:53:01.503Z,14.30
2022-10-05T22:55:47.905Z,14.50
2022-10-05T22:58:34.331Z,14.80
2022-10-05T23:01:21.555Z,14.80
2022-10-05T23:04:09.533Z,14.50
2022-10-05T23:06:56.423Z,14.30
2022-10-05T23:09:43.184Z,14.40
2022-10-05T23:12:29.581Z,14.40
2022-10-05T23:15:15.924Z,14.20
2022-10-05T23:18:02.375Z,14.00
2022-10-05T23:20:55.531Z,14.10
2022-10-05T23:23:43.267Z,14.20
2022-10-05T23:26:29.726Z,14.40
2022-10-05T23:29:16.128Z,14.40
2022-10-05T23:32:02.513Z,14.40
2022-10-05T23:34:48.887Z,14.40
2022-10-05T23:37:39.663Z,14.50
2022-10-05T23:40:26.373Z,14.60
2022-10-05T23:43:13.048Z,14.70
2022-10-05T23:45:59.591Z,14.80
2022-10-05T23:48:46.001Z,14.80
2022-10-05T23:51:33.324Z,14.90
2022-10-05T23:54:21.298Z,15.00
2022-10-05T23:57:07.799Z,15.00
2022-10-05T23:59:56.135Z,15.10
